Flight Track Log - Related Links

Times and Time Zones

All times are in EST time to prevent confusion due to time zone crossing. See the CFE8769 flight status page for this flight to view local times or setup timezone preferences in your user account.

Time Position Orientation Groundspeed Altitude Reporting Facility
EST Latitude Longitude Course Direction KTS MPH feet Rate Location/Type
Sun 02:58:23 PM 51.5065 0.0178 280° West 132 152 2,000  Level FlightAware UK
Sun 02:58:53 PM 51.5098 -0.0129 280° West 184 212 2,700 1,000 Climbing FlightAware UK
Sun 02:59:11 PM 51.5238 -0.0268 329° Northwest 202 232 2,800 143 Climbing FlightAware UK
Sun 02:59:35 PM 51.5492 -0.0169 14° North 216 249 2,800  Level FlightAware UK
Sun 02:59:53 PM 51.5646 0.0048 41° Northeast 216 249 2,800  Level FlightAware UK
Sun 03:00:11 PM 51.5745 0.0354 62° Northeast 230 265 2,800  Level FlightAware UK
Sun 03:00:29 PM 51.5793 0.0711 78° East 252 290 2,800  Level FlightAware UK
Sun 03:00:59 PM 51.5810 0.1343 88° East 256 295 2,800 750 Level FlightAware UK
Sun 03:01:17 PM 51.5820 0.1718 88° East 258 297 3,400 2,000 Climbing FlightAware UK
Sun 03:01:35 PM 51.5829 0.2094 88° East 260 299 4,000 2,000 Climbing FlightAware UK
Sun 03:01:47 PM 51.5809 0.2342 97° East 262 302 4,400 2,000 Climbing FlightAware UK
Sun 03:01:53 PM 51.5782 0.2461 110° East 260 299 4,600 1,600 Climbing FlightAware UK
Sun 03:02:17 PM 51.5672 0.2927 111° Southeast 266 306 5,200 1,116 Climbing FlightAware UK
Sun 03:02:36 PM 51.5580 0.3282 113° Southeast 268 308 5,400 1,224 Climbing FlightAware UK
Sun 03:03:06 PM 51.5421 0.3868 114° Southeast 270 311 6,200 1,750 Climbing FlightAware UK
Sun 03:03:24 PM 51.5326 0.4211 114° Southeast 274 315 6,800 2,000 Climbing FlightAware UK
Sun 03:03:42 PM 51.5230 0.4562 114° Southeast 274 315 7,400 2,000 Climbing FlightAware UK
Sun 03:04:00 PM 51.5135 0.4904 114° Southeast 276 318 8,000 2,000 Climbing FlightAware UK
Sun 03:04:18 PM 51.5036 0.5248 115° Southeast 276 318 8,600 1,833 Climbing FlightAware UK
Sun 03:04:36 PM 51.4930 0.5604 116° Southeast 280 322 9,100 1,833 Climbing FlightAware UK
Sun 03:04:54 PM 51.4821 0.5970 116° Southeast 282 325 9,700 1,875 Climbing FlightAware UK
Sun 03:05:24 PM 51.4638 0.6598 115° Southeast 298 343 10,600 2,100 Climbing FlightAware UK
Sun 03:05:54 PM 51.4438 0.7265 116° Southeast 310 357 11,800 2,600 Climbing FlightAware UK
Sun 03:06:24 PM 51.4227 0.7950 116° Southeast 328 377 13,200 2,900 Climbing FlightAware UK
Sun 03:06:54 PM 51.4005 0.8630 118° Southeast 328 377 14,700 2,692 Climbing FlightAware UK
Sun 03:07:42 PM 51.3636 0.9772 117° Southeast 342 394 16,700 2,538 Climbing FlightAware UK
Sun 03:08:12 PM 51.3441 1.0534 112° Southeast 348 400 18,000 2,300 Climbing FlightAware UK
Sun 03:08:42 PM 51.3319 1.1342 104° East 354 407 19,000 2,200 Climbing FlightAware UK
Sun 03:09:12 PM 51.3196 1.2168 103° East 360 414 20,200 2,182 Climbing FlightAware UK
Sun 03:09:48 PM 51.3045 1.3177 103° East 364 419 21,400 1,667 Climbing FlightAware UK
Sun 03:10:24 PM 51.2888 1.4217 104° East 374 430 22,200 1,273 Climbing FlightAware UK
Sun 03:10:54 PM 51.2746 1.5125 104° East 392 451 22,800 800 Climbing FlightAware UK
Sun 03:11:24 PM 51.2601 1.6069 104° East 410 472 23,000 727 Climbing FlightAware UK
Sun 03:12:00 PM 51.2418 1.7262 104° East 422 486 23,600 1,250 Climbing FlightAware UK
Sun 03:12:36 PM 51.2186 1.8435 107° East 424 488 24,500 1,433 Climbing FlightAware UK
Sun 03:13:07 PM 51.1890 1.9371 117° Southeast 428 493 25,200 1,182 Climbing FlightAware UK
Sun 03:13:42 PM 51.1499 2.0467 120° Southeast 432 497 25,800 2,308 Climbing FlightAware UK
Sun 03:14:12 PM 51.1178 2.1369 120° Southeast 410 472 27,700 2,583 Climbing FlightAware UK
Sun 03:14:54 PM 51.0736 2.2610 119° Southeast 412 474 28,900 1,644 Climbing FlightAware UK
Sun 03:15:25 PM 51.0411 2.3512 120° Southeast 414 476 29,700 1,364 Climbing FlightAware UK
Sun 03:16:00 PM 51.0017 2.4597 120° Southeast 420 483 30,400 1,200 Climbing FlightAware UK
Sun 03:16:30 PM 50.9681 2.5533 120° Southeast 424 488 31,000 1,082 Climbing FlightAware UK
Sun 03:17:01 PM 50.9336 2.6485 120° Southeast 428 493 31,500 1,082 Climbing FlightAware UK
Sun 03:17:31 PM 50.8984 2.7446 120° Southeast 430 495 32,100 1,100 Climbing FlightAware UK
Sun 03:18:01 PM 50.8626 2.8422 120° Southeast 436 502 32,600 1,100 Climbing FlightAware UK
Sun 03:18:31 PM 50.8267 2.9401 120° Southeast 436 502 33,200 1,200 Climbing FlightAware UK
Sun 03:19:01 PM 50.7905 3.0377 120° Southeast 434 499 33,800 1,200 Climbing FlightAware UK
Sun 03:19:31 PM 50.7541 3.1361 120° Southeast 436 502 34,400 2,800 Climbing FlightAware UK
Sun 03:20:01 PM 50.7194 3.2306 120° Southeast 430 495 36,600 3,300 Climbing FlightAware UK
Sun 03:20:31 PM 50.6868 3.3172 121° Southeast 404 465 37,700 1,500 Climbing FlightAware UK
Sun 03:21:01 PM 50.6541 3.4047 120° Southeast 422 486 38,100 1,300 Climbing FlightAware UK
Sun 03:21:31 PM 50.6216 3.4907 121° Southeast 418 481 39,000 900 Climbing FlightAware UK
Sun 03:22:01 PM 50.5891 3.5767 121° Southeast 426 490 39,000  Level FlightAware UK
Sun 03:22:31 PM 50.5553 3.6656 121° Southeast 432 497 39,000  Level FlightAware UK
Sun 03:23:01 PM 50.5216 3.7549 121° Southeast 438 504 39,000  Level FlightAware UK
Sun 03:23:31 PM 50.4876 3.8436 121° Southeast 434 499 39,000  Level FlightAware UK
Sun 03:24:01 PM 50.4532 3.9321 121° Southeast 438 504 39,000  Level FlightAware UK
Sun 03:24:43 PM 50.4065 4.0600 120° Southeast 442 509 39,000  Level FlightAware UK
Sun 03:25:13 PM 50.3711 4.1472 122° Southeast 442 509 39,000  Level FlightAware UK
Sun 03:25:44 PM 50.3358 4.2334 123° Southeast 440 506 39,000  Level FlightAware UK
Sun 03:26:14 PM 50.3032 4.3213 120° Southeast 1 1 39,000  Level FlightAware UK
Sun 03:26:44 PM 50.2708 4.4083 120° Southeast 1 1 39,000  Level FlightAware UK
Sun 03:27:14 PM 50.2372 4.4924 122° Southeast 1 1 39,000  Level FlightAware UK
Sun 03:27:44 PM 50.2012 4.5734 125° Southeast 1 1 39,000  Level FlightAware UK
Sun 03:28:14 PM 50.1664 4.6590 122° Southeast 1 1 39,000  Level FlightAware UK
Sun 03:28:44 PM 50.1341 4.7494 119° Southeast 1 1 39,000  Level FlightAware UK
Sun 03:29:14 PM 50.0997 4.8354 122° Southeast 1 1 39,000  Level FlightAware UK
Sun 03:30:02 PM 50.0469 4.9763 120° Southeast 1 1 39,000  Level FlightAware UK
Sun 03:32:00 PM 49.9364 5.1404 136° Southeast  Level Estimated
Sun 03:39:00 PM 49.5410 5.7185 136° Southeast  Level Estimated
Sun 03:40:00 PM 49.4843 5.8003 137° Southeast  Level Estimated
Sun 03:41:00 PM 49.4275 5.8820 137° Southeast  Level Estimated
Sun 03:42:00 PM 49.3707 5.9634 137° Southeast  Level Estimated
Sun 03:43:00 PM 49.3138 6.0447 137° Southeast  Level Estimated
Sun 03:44:00 PM 49.2569 6.1257 137° Southeast  Level Estimated
Sun 03:45:00 PM 49.1998 6.2066 137° Southeast  Level Estimated
Sun 03:46:00 PM 49.1428 6.2873 137° Southeast  Level Estimated
Sun 03:47:00 PM 49.0857 6.3678 137° Southeast  Level Estimated
Sun 03:48:00 PM 49.0285 6.4481 137° Southeast  Level Estimated
Sun 03:49:00 PM 48.9713 6.5283 137° Southeast  Level Estimated
Sun 03:50:00 PM 48.9140 6.6082 137° Southeast  Level Estimated
Sun 03:51:00 PM 48.8567 6.6880 138° Southeast  Level Estimated
Sun 03:52:00 PM 48.7993 6.7676 138° Southeast  Level Estimated
Sun 03:53:00 PM 48.7419 6.8470 138° Southeast  Level Estimated
Sun 03:54:00 PM 48.6843 6.9262 138° Southeast  Level Estimated
Sun 03:55:00 PM 48.6268 7.0053 138° Southeast  Level Estimated
Sun 03:56:00 PM 48.5692 7.0842 138° Southeast  Level Estimated
Sun 03:57:00 PM 48.5115 7.1628 138° Southeast  Level Estimated
Sun 03:58:00 PM 48.4538 7.2414 138° Southeast  Level Estimated
Sun 03:59:00 PM 48.3960 7.3197 138° Southeast  Level Estimated
Sun 04:00:00 PM 48.3382 7.3978 138° Southeast  Level Estimated
Sun 04:01:00 PM 48.2804 7.4758 138° Southeast  Level Estimated
Sun 04:02:00 PM 48.2224 7.5536 138° Southeast  Level Estimated
Sun 04:03:00 PM 48.1645 7.6312 138° Southeast  Level Estimated
Sun 04:04:00 PM 48.1064 7.7087 138° Southeast  Level Estimated
Sun 04:05:00 PM 48.0483 7.7860 138° Southeast  Level Estimated
Sun 04:06:00 PM 47.9902 7.8630 138° Southeast  Level Estimated
Sun 04:07:00 PM 47.9320 7.9400 138° Southeast  Level Estimated
Sun 04:08:00 PM 47.8738 8.0167 139° Southeast  Level Estimated
Sun 04:09:00 PM 47.8155 8.0933 139° Southeast  Level Estimated
Sun 04:10:00 PM 47.7571 8.1697 139° Southeast  Level Estimated
Sun 04:11:00 PM 47.6988 8.2459 139° Southeast  Level Estimated
Sun 04:12:00 PM 47.6403 8.3220 139° Southeast  Level Estimated
Sun 04:13:00 PM 47.5818 8.3979 139° Southeast  Level Estimated
Sun 04:14:00 PM 47.5233 8.4736 139° Southeast  Level Estimated
Sun 04:15:00 PM 47.4647 8.5492 139° Southeast  Level Estimated
Sun 04:16:00 PM 47.4647 8.5492 315° West  Level Estimated
Sun 04:17:00 PM 47.4647 8.5492 315° West  Level Estimated
Sun 04:18:00 PM 47.4647 8.5492 315° West  Level Estimated

Login

Don't have an account? Register now (free) for customized features, flight alerts, and more!